createdAt,value
2022-09-20T00:01:04.249Z,2.85
2022-09-20T00:04:06.942Z,2.72
2022-09-20T00:07:08.424Z,2.97
2022-09-20T00:10:09.886Z,2.78
2022-09-20T00:13:12.504Z,2.90
2022-09-20T00:16:15.191Z,3.25
2022-09-20T00:19:21.051Z,3.53
2022-09-20T00:22:22.273Z,3.42
2022-09-20T00:25:23.577Z,3.08
2022-09-20T00:28:25.041Z,2.97
2022-09-20T00:31:26.435Z,3.30
2022-09-20T00:34:46.617Z,3.47
2022-09-20T00:37:47.902Z,3.50
2022-09-20T00:40:49.126Z,5.35
2022-09-20T00:43:50.677Z,3.70
2022-09-20T00:46:51.905Z,4.15
2022-09-20T00:49:56.261Z,4.13
2022-09-20T00:53:00.137Z,4.53
2022-09-20T00:56:06.743Z,3.97
2022-09-20T00:59:11.089Z,3.22
2022-09-20T01:02:14.268Z,2.85
2022-09-20T01:05:16.014Z,2.55
2022-09-20T01:08:17.820Z,3.30
2022-09-20T01:11:19.104Z,3.58
2022-09-20T01:14:22.614Z,3.38
2022-09-20T01:17:25.166Z,3.05
2022-09-20T01:20:31.854Z,3.65
2022-09-20T01:23:35.989Z,4.00
2022-09-20T01:26:37.236Z,3.65
2022-09-20T01:29:51.690Z,4.32
2022-09-20T01:33:16.869Z,3.00
2022-09-20T01:36:41.481Z,3.22
2022-09-20T01:39:51.656Z,3.65
2022-09-20T01:43:01.865Z,3.28
2022-09-20T01:46:10.267Z,3.42
2022-09-20T01:49:21.306Z,3.47
2022-09-20T01:52:28.591Z,2.67
2022-09-20T01:55:44.805Z,3.22
2022-09-20T01:59:12.855Z,3.03
2022-09-20T02:02:16.374Z,3.25
2022-09-20T02:05:36.285Z,2.90
2022-09-20T02:08:40.562Z,3.05
2022-09-20T02:11:59.162Z,3.05
2022-09-20T02:15:26.691Z,2.88
2022-09-20T02:18:33.944Z,2.35
2022-09-20T02:21:41.038Z,2.90
2022-09-20T02:24:45.346Z,3.03
2022-09-20T02:28:03.684Z,2.17
2022-09-20T02:31:34.367Z,2.83
2022-09-20T02:35:11.317Z,2.40
2022-09-20T02:38:15.280Z,2.33
2022-09-20T02:41:28.446Z,2.60
2022-09-20T02:44:32.720Z,2.95
2022-09-20T02:47:42.334Z,3.35
2022-09-20T02:50:54.578Z,3.38
2022-09-20T02:54:19.393Z,2.92
2022-09-20T02:57:23.439Z,2.72
2022-09-20T03:00:27.515Z,2.90
2022-09-20T03:03:36.661Z,2.95
2022-09-20T03:06:37.862Z,2.55
2022-09-20T03:09:48.239Z,2.92
2022-09-20T03:12:49.434Z,2.63
2022-09-20T03:16:05.323Z,2.75
2022-09-20T03:19:23.900Z,2.58
2022-09-20T03:22:39.217Z,3.53
2022-09-20T03:25:59.333Z,2.38
2022-09-20T03:29:00.577Z,2.58
2022-09-20T03:32:08.406Z,2.45
2022-09-20T03:35:24.755Z,3.30
2022-09-20T03:38:53.201Z,2.60
2022-09-20T03:42:02.637Z,2.20
2022-09-20T03:45:15.856Z,1.83
2022-09-20T03:48:32.330Z,2.58
2022-09-20T03:51:48.807Z,2.15
2022-09-20T03:54:50.067Z,2.58
2022-09-20T03:57:51.297Z,2.67
2022-09-20T04:01:10.639Z,3.17
2022-09-20T04:04:32.210Z,2.58
2022-09-20T04:07:36.483Z,1.73
2022-09-20T04:10:59.061Z,2.20
2022-09-20T04:14:11.428Z,2.40
2022-09-20T04:17:22.171Z,2.58
2022-09-20T04:20:32.027Z,2.85
2022-09-20T04:23:36.110Z,2.03
2022-09-20T04:26:40.839Z,2.40
2022-09-20T04:29:42.050Z,2.03
2022-09-20T04:32:58.717Z,2.45
2022-09-20T04:36:29.030Z,2.80
2022-09-20T04:39:49.057Z,2.42
2022-09-20T04:43:08.575Z,2.13
2022-09-20T04:46:09.887Z,2.50
2022-09-20T04:49:17.229Z,4.25
2022-09-20T04:52:21.446Z,4.20
2022-09-20T04:55:42.388Z,5.28
2022-09-20T04:58:46.962Z,4.32
2022-09-20T05:01:48.230Z,4.65
2022-09-20T05:04:49.470Z,4.47
2022-09-20T05:07:50.682Z,3.72
2022-09-20T05:10:58.157Z,4.05
2022-09-20T05:14:03.192Z,4.22
2022-09-20T05:17:19.545Z,4.20
2022-09-20T05:20:30.109Z,4.25
2022-09-20T05:23:40.839Z,4.25
2022-09-20T05:27:06.088Z,4.82
2022-09-20T05:30:10.437Z,4.05
2022-09-20T05:33:19.289Z,3.58
2022-09-20T05:36:34.259Z,3.17
2022-09-20T05:39:42.373Z,3.83
2022-09-20T05:43:02.152Z,3.15
2022-09-20T05:46:22.009Z,4.25
2022-09-20T05:49:36.512Z,4.30
2022-09-20T05:52:49.966Z,2.83
2022-09-20T05:55:57.358Z,4.35
2022-09-20T05:59:02.012Z,3.33
2022-09-20T06:05:11.102Z,3.08
2022-09-20T06:08:24.559Z,3.10
2022-09-20T06:11:36.661Z,3.17
2022-09-20T06:14:47.321Z,3.70
2022-09-20T06:18:03.657Z,3.40
2022-09-20T06:21:10.862Z,3.03
2022-09-20T06:24:19.941Z,3.30
2022-09-20T06:27:24.365Z,3.55
2022-09-20T06:30:28.899Z,3.50
2022-09-20T06:33:30.356Z,3.88
2022-09-20T06:36:51.954Z,3.65
2022-09-20T06:40:21.521Z,3.50
2022-09-20T06:43:22.942Z,3.15
2022-09-20T06:46:24.709Z,3.08
2022-09-20T06:49:29.025Z,3.25
2022-09-20T06:52:30.306Z,3.00
2022-09-20T06:55:35.100Z,3.22
2022-09-20T06:58:36.365Z,3.20
2022-09-20T07:01:38.170Z,4.60
2022-09-20T07:04:39.974Z,3.30
2022-09-20T07:07:41.325Z,3.47
2022-09-20T07:10:43.944Z,3.28
2022-09-20T07:13:45.676Z,2.40
2022-09-20T07:16:46.998Z,3.22
2022-09-20T07:19:48.260Z,2.70
2022-09-20T07:22:49.703Z,2.72
2022-09-20T07:25:51.438Z,1.88
2022-09-20T07:28:52.984Z,2.53
2022-09-20T07:31:54.713Z,1.95
2022-09-20T07:34:56.135Z,2.40
2022-09-20T07:37:58.553Z,2.15
2022-09-20T07:41:01.283Z,2.38
2022-09-20T07:44:20.834Z,2.22
2022-09-20T07:47:25.205Z,2.30
2022-09-20T07:50:26.646Z,1.88
2022-09-20T07:53:28.247Z,2.85
2022-09-20T07:56:29.502Z,1.90
2022-09-20T07:59:30.753Z,1.83
2022-09-20T08:02:32.122Z,2.55
2022-09-20T08:05:33.402Z,2.45
2022-09-20T08:08:36.241Z,2.15
2022-09-20T08:11:39.414Z,2.22
2022-09-20T08:14:41.212Z,2.30
2022-09-20T08:17:42.434Z,2.33
2022-09-20T08:20:43.671Z,2.15
2022-09-20T08:23:47.694Z,2.33
2022-09-20T08:29:51.092Z,2.72
2022-09-20T08:32:55.855Z,2.20
2022-09-20T08:35:58.023Z,2.00
2022-09-20T08:42:33.967Z,1.73
2022-09-20T08:45:36.526Z,2.17
2022-09-20T08:48:37.900Z,2.00
2022-09-20T08:51:41.275Z,2.22
2022-09-20T08:54:43.451Z,2.25
2022-09-20T08:57:49.017Z,2.60
2022-09-20T09:00:50.377Z,2.25
2022-09-20T09:03:52.920Z,2.42
2022-09-20T09:06:54.197Z,3.00
2022-09-20T09:09:56.053Z,2.30
2022-09-20T09:12:57.980Z,3.28
2022-09-20T09:16:00.658Z,2.75
2022-09-20T09:19:20.778Z,2.30
2022-09-20T09:22:24.760Z,2.58
2022-09-20T09:25:32.116Z,2.20
2022-09-20T09:28:36.840Z,2.20
2022-09-20T09:31:39.593Z,2.67
2022-09-20T09:34:40.946Z,2.40
2022-09-20T09:37:52.512Z,2.80
2022-09-20T09:40:55.494Z,2.88
2022-09-20T09:44:00.851Z,2.17
2022-09-20T09:47:02.267Z,2.30
2022-09-20T09:50:08.864Z,2.30
2022-09-20T09:53:15.522Z,2.17
2022-09-20T09:56:35.342Z,2.88
2022-09-20T09:59:43.276Z,2.63
2022-09-20T10:02:56.920Z,2.25
2022-09-20T10:06:18.199Z,2.13
2022-09-20T10:09:24.025Z,1.92
2022-09-20T10:12:37.794Z,2.03
2022-09-20T10:16:11.452Z,1.83
2022-09-20T10:19:35.470Z,1.90
2022-09-20T10:23:29.899Z,2.13
2022-09-20T10:26:20.266Z,1.77
2022-09-20T10:29:40.211Z,2.28
2022-09-20T10:32:59.999Z,1.67
2022-09-20T10:36:12.685Z,2.00
2022-09-20T10:39:19.705Z,1.95
2022-09-20T10:42:49.094Z,1.83
2022-09-20T10:49:51.130Z,2.10
2022-09-20T10:53:06.588Z,1.83
2022-09-20T10:56:15.219Z,2.10
2022-09-20T10:59:27.020Z,1.52
2022-09-20T11:02:28.334Z,1.30
2022-09-20T11:05:33.185Z,2.03
2022-09-20T11:08:35.469Z,2.38
2022-09-20T11:11:40.446Z,2.13
2022-09-20T11:14:48.279Z,1.38
2022-09-20T11:17:56.388Z,2.25
2022-09-20T11:21:03.279Z,1.60
2022-09-20T11:24:23.204Z,1.60
2022-09-20T11:27:32.003Z,1.77
2022-09-20T11:30:33.732Z,2.20
2022-09-20T11:33:38.091Z,2.00
2022-09-20T11:36:52.156Z,1.75
2022-09-20T11:39:54.516Z,1.42
2022-09-20T11:42:57.642Z,1.60
2022-09-20T11:46:01.326Z,1.80
2022-09-20T11:49:04.205Z,1.17
2022-09-20T11:52:17.415Z,1.70
2022-09-20T11:55:30.890Z,3.70
2022-09-20T11:58:44.308Z,1.60
2022-09-20T12:01:45.714Z,1.50
2022-09-20T12:04:49.494Z,1.45
2022-09-20T12:11:18.842Z,1.75
2022-09-20T12:14:23.727Z,1.42
2022-09-20T12:17:43.957Z,1.40
2022-09-20T12:20:52.090Z,1.60
2022-09-20T12:23:53.534Z,1.40
2022-09-20T12:27:18.021Z,1.45
2022-09-20T12:30:21.316Z,1.50
2022-09-20T12:33:42.555Z,1.52
2022-09-20T12:36:45.073Z,2.10
2022-09-20T12:39:51.170Z,2.10
2022-09-20T12:42:56.701Z,2.15
2022-09-20T12:46:03.897Z,1.80
2022-09-20T12:49:58.164Z,1.42
2022-09-20T12:53:03.745Z,1.30
2022-09-20T12:56:06.378Z,1.45
2022-09-20T12:59:21.891Z,1.25
2022-09-20T13:02:42.480Z,1.60
2022-09-20T13:05:45.819Z,1.27
2022-09-20T13:08:56.950Z,1.40
2022-09-20T13:12:01.105Z,1.83
2022-09-20T13:15:03.255Z,1.58
2022-09-20T13:18:05.488Z,2.28
2022-09-20T13:21:07.577Z,1.50
2022-09-20T13:24:15.049Z,1.70
2022-09-20T13:27:37.194Z,2.30
2022-09-20T13:30:41.859Z,2.40
2022-09-20T13:33:43.189Z,1.80
2022-09-20T13:36:45.625Z,2.13
2022-09-20T13:39:47.551Z,2.08
2022-09-20T13:42:49.977Z,1.75
2022-09-20T13:45:53.742Z,1.88
2022-09-20T13:49:09.521Z,1.67
2022-09-20T13:52:24.346Z,1.80
2022-09-20T13:55:36.231Z,2.65
2022-09-20T13:58:37.900Z,1.30
2022-09-20T14:01:42.424Z,2.35
2022-09-20T14:04:44.116Z,1.40
2022-09-20T14:07:46.119Z,1.88
2022-09-20T14:10:47.365Z,1.95
2022-09-20T14:13:50.376Z,1.52
2022-09-20T14:16:53.187Z,1.48
2022-09-20T14:19:54.798Z,1.88
2022-09-20T14:22:59.112Z,1.20
2022-09-20T14:26:08.101Z,1.48
2022-09-20T14:29:28.786Z,1.20
2022-09-20T14:32:29.999Z,1.58
2022-09-20T14:35:31.768Z,1.38
2022-09-20T14:38:33.365Z,1.90
2022-09-20T14:41:36.702Z,1.70
2022-09-20T14:44:37.993Z,1.83
2022-09-20T14:47:52.082Z,1.60
2022-09-20T14:51:21.939Z,1.70
2022-09-20T14:54:26.011Z,1.67
2022-09-20T14:57:27.852Z,1.38
2022-09-20T15:00:29.792Z,1.67
2022-09-20T15:03:32.968Z,1.77
2022-09-20T15:06:35.161Z,1.70
2022-09-20T15:09:36.435Z,2.22
2022-09-20T15:12:37.702Z,2.22
2022-09-20T15:15:38.971Z,2.00
2022-09-20T15:18:43.758Z,1.52
2022-09-20T15:21:45.155Z,1.95
2022-09-20T15:24:46.415Z,1.85
2022-09-20T15:27:48.351Z,1.80
2022-09-20T15:30:50.619Z,1.40
2022-09-20T15:33:52.533Z,1.30
2022-09-20T15:36:54.598Z,1.50
2022-09-20T15:39:55.942Z,0.88
2022-09-20T15:42:58.597Z,1.05
2022-09-20T15:46:01.174Z,1.02
2022-09-20T15:49:03.349Z,1.65
2022-09-20T15:52:05.199Z,1.13
2022-09-20T15:55:07.060Z,1.15
2022-09-20T15:58:08.349Z,1.33
2022-09-20T16:01:09.738Z,0.80
2022-09-20T16:04:15.690Z,1.55
2022-09-20T16:07:17.528Z,1.85
2022-09-20T16:10:18.801Z,1.00
2022-09-20T16:13:20.071Z,1.75
2022-09-20T16:16:21.801Z,1.10
2022-09-20T16:19:25.397Z,1.55
2022-09-20T16:22:26.901Z,1.33
2022-09-20T16:25:28.163Z,1.75
2022-09-20T16:28:29.456Z,1.70
2022-09-20T16:31:35.386Z,1.65
2022-09-20T16:34:36.989Z,1.10
2022-09-20T16:37:39.363Z,1.48
2022-09-20T16:40:40.867Z,1.75
2022-09-20T16:43:42.182Z,1.00
2022-09-20T16:46:45.413Z,1.60
2022-09-20T16:49:47.812Z,1.27
2022-09-20T16:52:49.942Z,0.95
2022-09-20T16:55:51.889Z,2.08
2022-09-20T16:58:53.990Z,1.42
2022-09-20T17:01:55.459Z,1.35
2022-09-20T17:04:56.897Z,1.27
2022-09-20T17:07:58.134Z,2.85
2022-09-20T17:11:00.669Z,1.70
2022-09-20T17:14:01.977Z,1.67
2022-09-20T17:17:03.220Z,2.22
2022-09-20T17:20:06.015Z,2.70
2022-09-20T17:23:09.161Z,1.92
2022-09-20T17:26:12.378Z,2.03
2022-09-20T17:29:15.164Z,2.10
2022-09-20T17:32:17.423Z,1.52
2022-09-20T17:35:18.781Z,2.55
2022-09-20T17:38:21.077Z,1.63
2022-09-20T17:41:22.377Z,2.30
2022-09-20T17:44:24.052Z,1.83
2022-09-20T17:47:25.327Z,4.28
2022-09-20T17:50:26.731Z,2.92
2022-09-20T17:53:28.036Z,2.30
2022-09-20T17:56:30.991Z,1.85
2022-09-20T17:59:33.696Z,1.83
2022-09-20T18:02:34.967Z,2.22
2022-09-20T18:05:36.208Z,2.90
2022-09-20T18:08:37.769Z,2.22
2022-09-20T18:11:40.813Z,2.05
2022-09-20T18:14:42.141Z,2.22
2022-09-20T18:17:43.394Z,2.47
2022-09-20T18:20:44.694Z,2.65
2022-09-20T18:23:46.512Z,2.92
2022-09-20T18:26:47.771Z,3.15
2022-09-20T18:29:49.010Z,3.53
2022-09-20T18:32:50.571Z,4.13
2022-09-20T18:35:51.864Z,3.88
2022-09-20T18:38:54.695Z,4.80
2022-09-20T18:41:56.307Z,4.20
2022-09-20T18:44:58.521Z,4.25
2022-09-20T18:48:00.799Z,3.63
2022-09-20T18:51:03.500Z,4.75
2022-09-20T18:54:05.134Z,3.97
2022-09-20T18:57:10.064Z,3.88
2022-09-20T19:00:12.474Z,4.32
2022-09-20T19:03:19.374Z,4.07
2022-09-20T19:06:23.030Z,4.63
2022-09-20T19:09:26.589Z,4.32
2022-09-20T19:12:39.404Z,5.03
2022-09-20T19:15:46.944Z,7.80
2022-09-20T19:18:51.325Z,8.43
2022-09-20T19:21:52.556Z,9.25
2022-09-20T19:25:18.654Z,6.03
2022-09-20T19:28:20.029Z,4.90
2022-09-20T19:31:28.565Z,4.05
2022-09-20T19:34:30.942Z,4.50
2022-09-20T19:37:44.892Z,4.45
2022-09-20T19:40:52.261Z,4.18
2022-09-20T19:44:14.267Z,4.50
2022-09-20T19:47:34.332Z,3.85
2022-09-20T19:50:39.340Z,4.35
2022-09-20T19:53:40.827Z,4.18
2022-09-20T19:57:01.299Z,3.40
2022-09-20T20:00:07.405Z,3.33
2022-09-20T20:03:12.283Z,2.47
2022-09-20T20:06:42.941Z,2.55
2022-09-20T20:09:52.283Z,2.30
2022-09-20T20:13:28.840Z,2.60
2022-09-20T20:16:52.836Z,2.38
2022-09-20T20:20:10.246Z,2.92
2022-09-20T20:23:19.095Z,2.53
2022-09-20T20:26:21.341Z,2.40
2022-09-20T20:29:22.671Z,2.58
2022-09-20T20:32:24.334Z,2.42
2022-09-20T20:35:26.068Z,2.83
2022-09-20T20:38:28.098Z,2.63
2022-09-20T20:41:31.771Z,2.50
2022-09-20T20:44:34.903Z,3.45
2022-09-20T20:47:36.171Z,2.72
2022-09-20T20:50:37.416Z,2.42
2022-09-20T20:53:39.969Z,2.92
2022-09-20T20:56:41.288Z,4.97
2022-09-20T20:59:42.537Z,4.93
2022-09-20T21:02:44.934Z,4.13
2022-09-20T21:05:53.509Z,4.05
2022-09-20T21:08:54.833Z,3.13
2022-09-20T21:11:56.061Z,3.45
2022-09-20T21:14:57.318Z,2.88
2022-09-20T21:17:58.541Z,3.42
2022-09-20T21:21:00.558Z,4.28
2022-09-20T21:24:03.068Z,3.50
2022-09-20T21:27:04.614Z,3.63
2022-09-20T21:30:06.231Z,3.40
2022-09-20T21:33:07.515Z,4.07
2022-09-20T21:36:09.774Z,4.28
2022-09-20T21:39:11.282Z,3.17
2022-09-20T21:42:13.311Z,2.55
2022-09-20T21:45:14.525Z,2.80
2022-09-20T21:48:15.795Z,2.70
2022-09-20T21:51:18.303Z,3.28
2022-09-20T21:54:19.764Z,3.15
2022-09-20T21:57:21.156Z,3.30
2022-09-20T22:00:22.373Z,3.13
2022-09-20T22:03:23.612Z,2.97
2022-09-20T22:06:26.384Z,3.40
2022-09-20T22:09:27.633Z,3.05
2022-09-20T22:12:28.927Z,2.88
2022-09-20T22:15:30.168Z,3.38
2022-09-20T22:18:35.577Z,3.10
2022-09-20T22:21:44.010Z,2.80
2022-09-20T22:24:45.261Z,3.17
2022-09-20T22:27:46.544Z,2.92
2022-09-20T22:30:47.821Z,3.33
2022-09-20T22:33:50.272Z,3.20
2022-09-20T22:36:52.360Z,3.80
2022-09-20T22:39:53.616Z,3.13
2022-09-20T22:42:55.299Z,3.15
2022-09-20T22:46:01.384Z,3.28
2022-09-20T22:49:04.273Z,3.70
2022-09-20T22:52:05.608Z,3.63
2022-09-20T22:55:07.144Z,3.70
2022-09-20T22:58:08.400Z,3.08
2022-09-20T23:01:11.602Z,3.45
2022-09-20T23:04:17.361Z,2.75
2022-09-20T23:07:18.640Z,2.95
2022-09-20T23:10:19.897Z,3.00
2022-09-20T23:13:21.133Z,2.75
2022-09-20T23:16:24.054Z,2.72
2022-09-20T23:19:25.605Z,2.80
2022-09-20T23:22:26.844Z,2.40
2022-09-20T23:25:28.098Z,2.92
2022-09-20T23:28:29.341Z,2.78
2022-09-20T23:31:31.786Z,2.85
2022-09-20T23:34:33.025Z,3.53
2022-09-20T23:37:34.249Z,2.45
2022-09-20T23:40:36.053Z,3.35
2022-09-20T23:43:37.679Z,2.97
2022-09-20T23:46:38.957Z,2.83
2022-09-20T23:49:41.077Z,2.58
2022-09-20T23:52:42.334Z,3.25
2022-09-20T23:55:43.575Z,2.75
2022-09-20T23:58:45.471Z,2.70
